createdAt,value
2017-01-06T00:00:56.260Z,74.26
2017-01-06T00:01:56.269Z,74.07
2017-01-06T00:02:56.273Z,74.64
2017-01-06T00:03:56.287Z,74.26
2017-01-06T00:04:56.295Z,74.07
2017-01-06T00:05:56.298Z,74.07
2017-01-06T00:06:56.318Z,74.36
2017-01-06T00:07:56.314Z,74.26
2017-01-06T00:08:56.333Z,74.45
2017-01-06T00:09:56.331Z,74.55
2017-01-06T00:10:56.341Z,74.36
2017-01-06T00:11:56.366Z,74.07
2017-01-06T00:12:56.361Z,74.64
2017-01-06T00:13:56.366Z,74.36
2017-01-06T00:14:56.498Z,74.36
2017-01-06T00:15:56.382Z,74.64
2017-01-06T00:16:56.396Z,74.45
2017-01-06T00:17:56.399Z,74.36
2017-01-06T00:18:56.406Z,74.26
2017-01-06T00:19:56.504Z,74.26
2017-01-06T00:20:56.423Z,73.69
2017-01-06T00:21:56.436Z,73.69
2017-01-06T00:22:56.448Z,73.88
2017-01-06T00:23:56.452Z,73.98
2017-01-06T00:24:56.457Z,73.79
2017-01-06T00:25:56.465Z,73.69
2017-01-06T00:26:56.474Z,73.79
2017-01-06T00:27:56.483Z,73.6
2017-01-06T00:28:56.489Z,73.69
2017-01-06T00:29:56.497Z,74.07
2017-01-06T00:30:56.508Z,73.79
2017-01-06T00:31:56.523Z,74.26
2017-01-06T00:32:56.525Z,73.79
2017-01-06T00:33:56.536Z,74.17
2017-01-06T00:34:56.537Z,73.79
2017-01-06T00:35:56.552Z,74.07
2017-01-06T00:36:56.556Z,73.88
2017-01-06T00:37:56.565Z,74.07
2017-01-06T00:38:56.569Z,74.17
2017-01-06T00:39:56.977Z,74.55
2017-01-06T00:40:56.587Z,74.26
2017-01-06T00:41:56.594Z,74.64
2017-01-06T00:42:56.606Z,74.36
2017-01-06T00:43:56.616Z,74.26
2017-01-06T00:44:56.621Z,74.64
2017-01-06T00:45:56.629Z,74.26
2017-01-06T00:46:56.636Z,73.98
2017-01-06T00:47:56.645Z,74.64
2017-01-06T00:48:56.654Z,74.64
2017-01-06T00:49:56.664Z,74.83
2017-01-06T00:50:56.677Z,75.02
2017-01-06T00:51:56.678Z,75.02
2017-01-06T00:52:56.683Z,74.93
2017-01-06T00:53:56.692Z,75.21
2017-01-06T00:54:56.701Z,74.93
2017-01-06T00:55:56.710Z,75.12
2017-01-06T00:56:56.718Z,74.93
2017-01-06T00:57:56.727Z,75.12
2017-01-06T00:58:56.732Z,74.07
2017-01-06T00:59:56.743Z,74.26
2017-01-06T01:00:56.752Z,74.17
2017-01-06T01:01:56.766Z,73.98
2017-01-06T01:02:56.771Z,74.07
2017-01-06T01:03:56.779Z,73.88
2017-01-06T01:04:56.786Z,74.26
2017-01-06T01:05:56.800Z,74.45
2017-01-06T01:06:56.805Z,74.26
2017-01-06T01:07:56.811Z,74.36
2017-01-06T01:08:56.819Z,74.26
2017-01-06T01:09:56.827Z,74.26
2017-01-06T01:10:56.837Z,74.26
2017-01-06T01:11:56.843Z,74.36
2017-01-06T01:12:56.864Z,73.79
2017-01-06T01:13:56.861Z,73.98
2017-01-06T01:14:56.867Z,73.69
2017-01-06T01:15:56.882Z,73.6
2017-01-06T01:16:56.883Z,74.13
2017-01-06T01:17:56.892Z,73.88
2017-01-06T01:18:56.902Z,74.07
2017-01-06T01:19:56.908Z,73.88
2017-01-06T01:20:56.915Z,73.85
2017-01-06T01:21:56.924Z,74.32
2017-01-06T01:22:56.933Z,74.36
2017-01-06T01:23:56.941Z,74.26
2017-01-06T01:24:56.947Z,74.17
2017-01-06T01:25:56.956Z,74.45
2017-01-06T01:26:56.965Z,75.12
2017-01-06T01:27:56.972Z,74.83
2017-01-06T01:28:56.981Z,74.98
2017-01-06T01:29:56.993Z,74.83
2017-01-06T01:30:56.998Z,75.02
2017-01-06T01:31:57.005Z,74.79
2017-01-06T01:32:57.015Z,74.83
2017-01-06T01:33:57.022Z,75.12
2017-01-06T01:34:57.180Z,74.93
2017-01-06T01:35:57.036Z,75.12
2017-01-06T01:36:57.062Z,74.93
2017-01-06T01:37:57.053Z,74.93
2017-01-06T01:38:57.067Z,75.21
2017-01-06T01:39:57.072Z,75.21
2017-01-06T01:40:57.080Z,75.21
2017-01-06T01:41:57.084Z,75.02
2017-01-06T01:42:57.094Z,74.93
2017-01-06T01:43:57.101Z,74.83
2017-01-06T01:44:57.111Z,75.02
2017-01-06T01:45:57.117Z,75.02
2017-01-06T01:46:57.125Z,75.12
2017-01-06T01:47:57.135Z,74.93
2017-01-06T01:48:57.145Z,74.83
2017-01-06T01:49:57.149Z,75.21
2017-01-06T01:50:57.156Z,75.31
2017-01-06T01:51:57.165Z,75.49
2017-01-06T01:52:57.177Z,75.12
2017-01-06T01:53:57.185Z,74.83
2017-01-06T01:54:57.188Z,74.83
2017-01-06T01:55:57.198Z,75.21
2017-01-06T01:56:57.206Z,75.02
2017-01-06T01:57:57.215Z,74.83
2017-01-06T01:58:57.222Z,74.83
2017-01-06T01:59:57.236Z,74.64
2017-01-06T02:01:29.310Z,75.4
2017-01-06T02:01:57.242Z,75.21
2017-01-06T02:03:29.328Z,75.49
2017-01-06T02:03:57.273Z,76.06
2017-01-06T02:04:57.298Z,75.87
2017-01-06T02:05:57.273Z,75.78
2017-01-06T02:06:57.311Z,75.68
2017-01-06T02:07:57.292Z,75.59
2017-01-06T02:08:57.297Z,75.59
2017-01-06T02:09:57.321Z,75.87
2017-01-06T02:10:57.321Z,75.96
2017-01-06T02:11:57.321Z,75.31
2017-01-06T02:12:57.333Z,75.49
2017-01-06T02:13:57.341Z,75.49
2017-01-06T02:14:57.346Z,75.31
2017-01-06T02:15:57.359Z,75.49
2017-01-06T02:16:57.362Z,75.49
2017-01-06T02:17:57.373Z,75.49
2017-01-06T02:18:57.377Z,76.06
2017-01-06T02:19:57.410Z,76.06
2017-01-06T02:20:57.398Z,75.59
2017-01-06T02:21:57.408Z,75.21
2017-01-06T02:22:57.412Z,75.59
2017-01-06T02:23:57.419Z,75.21
2017-01-06T02:24:57.427Z,75.12
2017-01-06T02:25:57.435Z,75.59
2017-01-06T02:26:57.441Z,75.59
2017-01-06T02:27:57.452Z,75.59
2017-01-06T02:28:57.458Z,75.87
2017-01-06T02:29:57.469Z,75.59
2017-01-06T02:30:57.474Z,75.96
2017-01-06T02:31:57.484Z,75.87
2017-01-06T02:32:57.494Z,75.96
2017-01-06T02:33:57.499Z,75.87
2017-01-06T02:34:57.507Z,75.96
2017-01-06T02:35:57.516Z,75.49
2017-01-06T02:36:57.525Z,75.49
2017-01-06T02:37:57.528Z,75.4
2017-01-06T02:38:57.542Z,74.93
2017-01-06T02:39:57.554Z,75.02
2017-01-06T02:40:57.560Z,74.64
2017-01-06T02:41:57.562Z,75.12
2017-01-06T02:42:57.574Z,74.93
2017-01-06T02:43:57.979Z,75.21
2017-01-06T02:44:57.588Z,75.12
2017-01-06T02:45:57.594Z,74.83
2017-01-06T02:46:57.605Z,74.83
2017-01-06T02:47:57.616Z,74.74
2017-01-06T02:48:57.626Z,74.74
2017-01-06T02:49:57.629Z,74.93
2017-01-06T02:50:57.638Z,74.93
2017-01-06T02:51:57.642Z,74.74
2017-01-06T02:52:57.654Z,74.83
2017-01-06T02:53:57.659Z,75.21
2017-01-06T02:54:57.671Z,75.12
2017-01-06T02:55:57.679Z,75.02
2017-01-06T02:56:57.693Z,74.83
2017-01-06T02:57:57.694Z,75.21
2017-01-06T02:58:57.702Z,75.12
2017-01-06T02:59:57.710Z,74.83
2017-01-06T03:00:57.718Z,74.74
2017-01-06T03:01:57.726Z,75.4
2017-01-06T03:02:57.735Z,75.49
2017-01-06T03:03:57.742Z,75.12
2017-01-06T03:04:57.753Z,75.59
2017-01-06T03:05:57.759Z,75.12
2017-01-06T03:06:57.767Z,74.74
2017-01-06T03:07:57.779Z,74.74
2017-01-06T03:08:57.783Z,74.93
2017-01-06T03:09:57.787Z,74.64
2017-01-06T03:10:57.800Z,74.93
2017-01-06T03:11:57.803Z,75.12
2017-01-06T03:12:57.814Z,74.64
2017-01-06T03:13:57.824Z,74.83
2017-01-06T03:14:57.830Z,74.74
2017-01-06T03:15:57.839Z,75.02
2017-01-06T03:16:57.845Z,75.02
2017-01-06T03:17:57.852Z,74.64
2017-01-06T03:18:57.862Z,74.93
2017-01-06T03:19:57.871Z,75.02
2017-01-06T03:20:57.879Z,74.55
2017-01-06T03:21:57.888Z,74.64
2017-01-06T03:22:57.892Z,73.98
2017-01-06T03:23:57.904Z,73.69
2017-01-06T03:24:57.912Z,73.69
2017-01-06T03:25:57.920Z,73.88
2017-01-06T03:26:57.926Z,73.79
2017-01-06T03:27:57.938Z,73.88
2017-01-06T03:28:57.943Z,74.26
2017-01-06T03:29:57.953Z,74.36
2017-01-06T03:30:57.959Z,73.98
2017-01-06T03:31:57.968Z,73.88
2017-01-06T03:32:57.973Z,73.98
2017-01-06T03:33:57.986Z,73.88
2017-01-06T03:34:57.989Z,74.36
2017-01-06T03:35:58.003Z,74.45
2017-01-06T03:36:58.009Z,74.36
2017-01-06T03:37:58.017Z,74.26
2017-01-06T03:38:58.025Z,74.07
2017-01-06T03:39:58.031Z,73.88
2017-01-06T03:40:58.038Z,73.98
2017-01-06T03:41:58.048Z,73.69
2017-01-06T03:42:58.057Z,73.5
2017-01-06T03:43:58.065Z,73.13
2017-01-06T03:44:58.069Z,73.22
2017-01-06T03:45:58.078Z,73.03
2017-01-06T03:46:58.091Z,73.13
2017-01-06T03:47:58.097Z,73.5
2017-01-06T03:48:58.106Z,73.03
2017-01-06T03:49:58.124Z,73.32
2017-01-06T03:50:58.119Z,73.41
2017-01-06T03:51:58.132Z,73.37
2017-01-06T03:52:58.137Z,73.22
2017-01-06T03:53:58.148Z,73.22
2017-01-06T03:54:58.153Z,73.18
2017-01-06T03:55:58.168Z,73.69
2017-01-06T03:56:58.170Z,73.69
2017-01-06T03:57:58.176Z,73.6
2017-01-06T03:58:58.186Z,73.56
2017-01-06T03:59:58.195Z,73.79
2017-01-06T04:00:58.200Z,74.26
2017-01-06T04:01:58.207Z,74.07
2017-01-06T04:02:58.221Z,74.17
2017-01-06T04:03:58.225Z,73.75
2017-01-06T04:04:58.233Z,73.6
2017-01-06T04:05:58.243Z,73.98
2017-01-06T04:06:58.251Z,73.47
2017-01-06T04:07:58.261Z,73.13
2017-01-06T04:08:58.269Z,73.09
2017-01-06T04:09:58.271Z,73.18
2017-01-06T04:10:58.284Z,73.32
2017-01-06T04:11:58.293Z,73.37
2017-01-06T04:12:58.303Z,73.41
2017-01-06T04:13:58.307Z,73.18
2017-01-06T04:14:58.318Z,73.37
2017-01-06T04:15:58.323Z,73.18
2017-01-06T04:16:58.331Z,73.56
2017-01-06T04:17:58.340Z,73.75
2017-01-06T04:18:58.347Z,73.94
2017-01-06T04:19:58.357Z,73.75
2017-01-06T04:20:58.361Z,73.85
2017-01-06T04:21:58.372Z,73.85
2017-01-06T04:22:58.379Z,74.22
2017-01-06T04:23:58.389Z,74.32
2017-01-06T04:24:58.396Z,74.32
2017-01-06T04:25:58.404Z,74.51
2017-01-06T04:26:58.412Z,74.13
2017-01-06T04:27:58.422Z,74.32
2017-01-06T04:28:58.430Z,74.36
2017-01-06T04:29:58.437Z,74.41
2017-01-06T04:30:58.447Z,74.41
2017-01-06T04:31:58.448Z,74.13
2017-01-06T04:32:58.462Z,74.13
2017-01-06T04:33:58.467Z,74.22
2017-01-06T04:34:58.477Z,74.55
2017-01-06T04:35:58.485Z,74.07
2017-01-06T04:36:58.493Z,74.36
2017-01-06T04:37:58.501Z,74.41
2017-01-06T04:38:58.508Z,74.26
2017-01-06T04:39:58.517Z,74.32
2017-01-06T04:40:58.523Z,74.04
2017-01-06T04:41:58.531Z,74.13
2017-01-06T04:42:58.537Z,74.32
2017-01-06T04:43:58.547Z,74.13
2017-01-06T04:44:58.554Z,74.36
2017-01-06T04:45:58.557Z,74.6
2017-01-06T04:46:58.567Z,74.13
2017-01-06T04:47:58.575Z,74.13
2017-01-06T04:48:58.582Z,74.45
2017-01-06T04:49:58.593Z,74.32
2017-01-06T04:50:58.603Z,74.22
2017-01-06T04:51:58.608Z,74.13
2017-01-06T04:52:58.618Z,74.32
2017-01-06T04:53:58.625Z,74.88
2017-01-06T04:54:58.657Z,74.79
2017-01-06T04:55:58.636Z,74.88
2017-01-06T04:56:58.647Z,74.79
2017-01-06T04:57:58.660Z,74.79
2017-01-06T04:58:58.661Z,74.83
2017-01-06T04:59:58.671Z,74.88
2017-01-06T05:00:58.682Z,75.17
2017-01-06T05:01:58.686Z,75.26
2017-01-06T05:02:58.692Z,74.98
2017-01-06T05:03:58.702Z,75.12
2017-01-06T05:04:58.715Z,74.79
2017-01-06T05:05:58.717Z,75.02
2017-01-06T05:06:58.728Z,75.17
2017-01-06T05:07:58.736Z,75.49
2017-01-06T05:08:58.741Z,75.26
2017-01-06T05:09:58.751Z,75.17
2017-01-06T05:10:58.759Z,75.07
2017-01-06T05:11:58.766Z,75.45
2017-01-06T05:12:58.772Z,75.49
2017-01-06T05:13:58.785Z,75.45
2017-01-06T05:14:58.786Z,75.31
2017-01-06T05:15:58.798Z,75.36
2017-01-06T05:16:58.804Z,75.26
2017-01-06T05:17:58.814Z,75.59
2017-01-06T05:18:58.822Z,75.31
2017-01-06T05:19:58.830Z,75.45
2017-01-06T05:20:58.836Z,75.45
2017-01-06T05:21:58.843Z,75.26
2017-01-06T05:22:58.856Z,75.07
2017-01-06T05:23:58.862Z,75.26
2017-01-06T05:24:58.867Z,75.55
2017-01-06T05:25:58.871Z,75.45
2017-01-06T05:26:58.888Z,75.26
2017-01-06T05:27:58.891Z,75.31
2017-01-06T05:28:58.905Z,75.45
2017-01-06T05:29:58.904Z,75.45
2017-01-06T05:30:58.916Z,75.93
2017-01-06T05:31:58.924Z,75.55
2017-01-06T05:32:58.930Z,75.55
2017-01-06T05:33:58.938Z,75.45
2017-01-06T05:34:58.952Z,75.36
2017-01-06T05:35:58.959Z,75.36
2017-01-06T05:36:58.968Z,75.45
2017-01-06T05:37:58.973Z,75.07
2017-01-06T05:38:58.978Z,75.07
2017-01-06T05:39:58.987Z,75.55
2017-01-06T05:40:58.995Z,75.17
2017-01-06T05:41:59.006Z,75.36
2017-01-06T05:42:59.014Z,75.26
2017-01-06T05:43:59.020Z,75.17
2017-01-06T05:44:59.033Z,75.17
2017-01-06T05:45:59.038Z,75.12
2017-01-06T05:46:59.042Z,75.26
2017-01-06T05:47:59.057Z,75.17
2017-01-06T05:48:59.064Z,75.07
2017-01-06T05:49:59.070Z,75.45
2017-01-06T05:50:59.075Z,74.98
2017-01-06T05:51:59.090Z,74.6
2017-01-06T05:52:59.089Z,74.88
2017-01-06T05:53:59.097Z,74.88
2017-01-06T05:54:59.108Z,74.88
2017-01-06T05:55:59.114Z,74.88
2017-01-06T05:56:59.125Z,74.69
2017-01-06T05:57:59.127Z,74.88
2017-01-06T05:58:59.140Z,75.17
2017-01-06T05:59:59.146Z,75.36
2017-01-06T06:00:59.155Z,75.45
2017-01-06T06:01:59.162Z,75.17
2017-01-06T06:02:59.167Z,75.36
2017-01-06T06:03:59.180Z,75.26
2017-01-06T06:04:59.183Z,75.26
2017-01-06T06:05:59.197Z,75.45
2017-01-06T06:06:59.209Z,75.36
2017-01-06T06:07:59.209Z,75.55
2017-01-06T06:08:59.220Z,75.93
2017-01-06T06:09:59.227Z,75.93
2017-01-06T06:10:59.232Z,75.93
2017-01-06T06:11:59.242Z,75.83
2017-01-06T06:12:59.251Z,75.83
2017-01-06T06:13:59.257Z,75.64
2017-01-06T06:14:59.265Z,75.74
2017-01-06T06:15:59.271Z,75.55
2017-01-06T06:16:59.284Z,75.64
2017-01-06T06:17:59.287Z,75.64
2017-01-06T06:18:59.370Z,75.74
2017-01-06T06:19:59.340Z,75.83
2017-01-06T06:21:14.200Z,75.36
2017-01-06T06:21:59.337Z,75.55
2017-01-06T06:22:59.327Z,75.55
2017-01-06T06:23:59.419Z,75.83
2017-01-06T06:24:59.342Z,76.21
2017-01-06T06:25:59.353Z,76.12
2017-01-06T06:26:59.362Z,76.21
2017-01-06T06:27:59.367Z,76.31
2017-01-06T06:28:59.375Z,76.12
2017-01-06T06:29:59.382Z,75.93
2017-01-06T06:30:59.389Z,76.02
2017-01-06T06:31:59.396Z,76.4
2017-01-06T06:32:59.406Z,76.02
2017-01-06T06:33:59.414Z,76.4
2017-01-06T06:34:59.424Z,76.4
2017-01-06T06:35:59.429Z,76.06
2017-01-06T06:36:59.441Z,76.02
2017-01-06T06:37:59.445Z,75.93
2017-01-06T06:38:59.451Z,76.4
2017-01-06T06:39:59.459Z,76.4
2017-01-06T06:40:59.470Z,76.5
2017-01-06T06:41:59.474Z,76.31
2017-01-06T06:42:59.483Z,76.21
2017-01-06T06:43:59.492Z,76.02
2017-01-06T06:44:59.500Z,75.83
2017-01-06T06:45:59.506Z,76.02
2017-01-06T06:46:59.517Z,75.55
2017-01-06T06:47:59.528Z,75.45
2017-01-06T06:48:59.531Z,75.64
2017-01-06T06:49:59.539Z,75.74
2017-01-06T06:50:59.547Z,75.55
2017-01-06T06:51:59.560Z,75.45
2017-01-06T06:52:59.565Z,75.45
2017-01-06T06:53:59.574Z,75.93
2017-01-06T06:54:59.576Z,75.64
2017-01-06T06:55:59.587Z,75.64
2017-01-06T06:56:59.645Z,75.45
2017-01-06T06:57:59.601Z,76.02
2017-01-06T06:58:59.645Z,75.74
2017-01-06T06:59:59.620Z,75.83
2017-01-06T07:00:59.628Z,75.64
2017-01-06T07:01:59.635Z,76.21
2017-01-06T07:02:59.641Z,76.12
2017-01-06T07:03:59.674Z,75.45
2017-01-06T07:04:59.658Z,75.55
2017-01-06T07:05:59.664Z,75.74
2017-01-06T07:06:59.670Z,75.36
2017-01-06T07:07:59.680Z,75.45
2017-01-06T07:08:59.688Z,75.64
2017-01-06T07:09:59.696Z,75.83
2017-01-06T07:10:59.702Z,75.64
2017-01-06T07:11:59.717Z,75.45
2017-01-06T07:12:59.720Z,75.55
2017-01-06T07:13:59.728Z,75.55
2017-01-06T07:14:59.765Z,75.36
2017-01-06T07:15:59.744Z,75.74
2017-01-06T07:16:59.750Z,75.64
2017-01-06T07:17:59.764Z,76.12
2017-01-06T07:19:00.010Z,76.02
2017-01-06T07:20:00.018Z,76.02
2017-01-06T07:21:00.035Z,75.83
2017-01-06T07:22:00.031Z,76.31
2017-01-06T07:23:00.044Z,76.31
2017-01-06T07:23:59.808Z,76.21
2017-01-06T07:24:59.813Z,76.21
2017-01-06T07:25:59.820Z,75.55
2017-01-06T07:26:59.828Z,76.21
2017-01-06T07:27:59.837Z,76.02
2017-01-06T07:28:59.854Z,76.02
2017-01-06T07:29:59.849Z,76.31
2017-01-06T07:30:59.864Z,76.31
2017-01-06T07:31:59.870Z,76.4
2017-01-06T07:32:59.876Z,76.4
2017-01-06T07:33:59.897Z,76.02
2017-01-06T07:34:59.892Z,76.02
2017-01-06T07:35:59.901Z,76.02
2017-01-06T07:36:59.906Z,76.4
2017-01-06T07:37:59.921Z,76.21
2017-01-06T07:38:59.926Z,75.93
2017-01-06T07:39:59.928Z,76.59
2017-01-06T07:40:59.937Z,76.31
2017-01-06T07:41:59.947Z,76.31
2017-01-06T07:42:59.955Z,76.5
2017-01-06T07:43:59.964Z,76.59
2017-01-06T07:44:59.969Z,76.4
2017-01-06T07:45:59.983Z,76.12
2017-01-06T07:46:59.983Z,76.12
2017-01-06T07:47:59.992Z,76.87
2017-01-06T07:49:00.001Z,76.68
2017-01-06T07:50:00.011Z,76.78
2017-01-06T07:51:00.019Z,76.59
2017-01-06T07:52:00.027Z,76.78
2017-01-06T07:53:00.033Z,76.68
2017-01-06T07:54:00.040Z,76.78
2017-01-06T07:55:00.054Z,76.78
2017-01-06T07:56:00.081Z,76.78
2017-01-06T07:57:00.065Z,76.78
2017-01-06T07:58:00.073Z,76.78
2017-01-06T07:59:00.080Z,76.68
2017-01-06T08:00:00.086Z,76.68
2017-01-06T08:01:00.100Z,76.68
2017-01-06T08:02:00.104Z,76.5
2017-01-06T08:03:00.110Z,76.4
2017-01-06T08:04:00.118Z,76.59
2017-01-06T08:05:00.127Z,76.87
2017-01-06T08:06:00.138Z,76.97
2017-01-06T08:07:00.148Z,76.68
2017-01-06T08:08:00.158Z,76.87
2017-01-06T08:09:00.159Z,76.68
2017-01-06T08:10:00.165Z,76.78
2017-01-06T08:11:00.176Z,76.78
2017-01-06T08:12:00.187Z,76.97
2017-01-06T08:13:00.190Z,76.78
2017-01-06T08:14:00.197Z,76.59
2017-01-06T08:15:00.206Z,76.87
2017-01-06T08:16:00.217Z,76.97
2017-01-06T08:17:00.232Z,76.21
2017-01-06T08:18:00.233Z,76.97
2017-01-06T08:19:00.240Z,76.87
2017-01-06T08:20:00.242Z,76.12
2017-01-06T08:21:00.252Z,76.78
2017-01-06T08:22:00.267Z,76.59
2017-01-06T08:23:00.268Z,76.68
2017-01-06T08:24:00.282Z,76.78
2017-01-06T08:25:00.286Z,76.68
2017-01-06T08:26:00.298Z,76.59
2017-01-06T08:27:00.303Z,76.78
2017-01-06T08:28:00.309Z,76.68
2017-01-06T08:29:00.318Z,76.87
2017-01-06T08:30:00.326Z,76.91
2017-01-06T08:31:00.334Z,76.87
2017-01-06T08:32:00.340Z,76.78
2017-01-06T08:33:00.349Z,76.15
2017-01-06T08:34:00.358Z,76.25
2017-01-06T08:35:00.374Z,76.34
2017-01-06T08:36:00.376Z,76.4
2017-01-06T08:37:00.385Z,76.34
2017-01-06T08:38:00.387Z,76.34
2017-01-06T08:39:00.398Z,76.44
2017-01-06T08:40:00.407Z,76.02
2017-01-06T08:41:00.413Z,76.78
2017-01-06T08:42:00.430Z,76.34
2017-01-06T08:43:00.639Z,76.25
2017-01-06T08:44:00.448Z,76.25
2017-01-06T08:45:00.449Z,76.72
2017-01-06T08:46:00.466Z,76.82
2017-01-06T08:47:00.467Z,76.82
2017-01-06T08:48:00.473Z,76.63
2017-01-06T08:49:00.478Z,76.72
2017-01-06T08:50:00.485Z,76.63
2017-01-06T08:51:00.497Z,76.91
2017-01-06T08:52:00.519Z,76.63
2017-01-06T08:53:00.507Z,76.34
2017-01-06T08:54:00.527Z,76.82
2017-01-06T08:55:00.529Z,77.01
2017-01-06T08:56:00.538Z,76.82
2017-01-06T08:57:00.543Z,77.01
2017-01-06T08:58:00.560Z,76.44
2017-01-06T08:59:00.562Z,76.06
2017-01-06T09:00:00.578Z,76.44
2017-01-06T09:01:00.580Z,76.25
2017-01-06T09:02:00.597Z,76.63
2017-01-06T09:03:00.587Z,76.15
2017-01-06T09:04:00.600Z,76.44
2017-01-06T09:05:00.620Z,76.06
2017-01-06T09:06:00.628Z,75.68
2017-01-06T09:07:00.637Z,75.21
2017-01-06T09:08:00.647Z,74.93
2017-01-06T09:09:00.641Z,75.02
2017-01-06T09:10:00.654Z,75.21
2017-01-06T09:11:00.655Z,74.93
2017-01-06T09:12:00.669Z,74.64
2017-01-06T09:13:00.735Z,75.12
2017-01-06T09:14:00.683Z,75.17
2017-01-06T09:15:00.689Z,74.74
2017-01-06T09:16:00.707Z,74.69
2017-01-06T09:17:00.702Z,75.21
2017-01-06T09:18:00.711Z,74.74
2017-01-06T09:19:00.720Z,75.21
2017-01-06T09:20:00.734Z,75.93
2017-01-06T09:21:00.737Z,75.78
2017-01-06T09:22:00.752Z,76.63
2017-01-06T09:23:00.752Z,76.15
2017-01-06T09:24:00.766Z,76.06
2017-01-06T09:25:00.766Z,75.59
2017-01-06T09:26:00.786Z,75.59
2017-01-06T09:27:00.784Z,75.49
2017-01-06T09:28:00.792Z,75.78
2017-01-06T09:29:00.808Z,75.12
2017-01-06T09:30:00.818Z,75.02
2017-01-06T09:31:00.816Z,74.93
2017-01-06T09:32:00.876Z,74.93
2017-01-06T09:33:00.834Z,75.12
2017-01-06T09:34:00.840Z,74.93
2017-01-06T09:35:00.850Z,74.93
2017-01-06T09:36:00.861Z,75.02
2017-01-06T09:37:00.864Z,74.45
2017-01-06T09:38:00.879Z,74.26
2017-01-06T09:39:00.880Z,74.36
2017-01-06T09:40:00.896Z,74.64
2017-01-06T09:41:00.940Z,74.64
2017-01-06T09:42:00.907Z,74.07
2017-01-06T09:43:00.912Z,74.36
2017-01-06T09:44:00.951Z,74.26
2017-01-06T09:45:00.930Z,74.32
2017-01-06T09:46:00.938Z,74.36
2017-01-06T09:47:00.945Z,74.07
2017-01-06T09:48:00.955Z,74.26
2017-01-06T09:49:00.960Z,73.85
2017-01-06T09:50:00.971Z,73.85
2017-01-06T09:51:00.977Z,74.17
2017-01-06T09:52:00.990Z,74.32
2017-01-06T09:53:00.994Z,74.32
2017-01-06T09:54:01.008Z,74.04
2017-01-06T09:55:01.017Z,75.02
2017-01-06T09:56:01.016Z,75.17
2017-01-06T09:57:01.025Z,75.12
2017-01-06T09:58:01.064Z,74.17
2017-01-06T09:59:01.045Z,74.36
2017-01-06T10:00:01.060Z,74.17
2017-01-06T10:01:01.058Z,75.07
2017-01-06T10:02:01.067Z,74.93
2017-01-06T10:03:01.075Z,75.12
2017-01-06T10:04:01.104Z,74.93
2017-01-06T10:05:01.089Z,74.74
2017-01-06T10:06:01.101Z,74.93
2017-01-06T10:07:01.106Z,74.93
2017-01-06T10:08:01.119Z,74.83
2017-01-06T10:09:01.122Z,74.74
2017-01-06T10:10:01.136Z,74.74
2017-01-06T10:11:01.135Z,75.21
2017-01-06T10:12:01.143Z,75.4
2017-01-06T10:13:01.155Z,75.49
2017-01-06T10:14:01.170Z,75.59
2017-01-06T10:15:01.173Z,75.68
2017-01-06T10:16:01.178Z,75.59
2017-01-06T10:17:01.186Z,75.4
2017-01-06T10:18:01.195Z,75.4
2017-01-06T10:19:01.199Z,75.12
2017-01-06T10:20:01.209Z,75.4
2017-01-06T10:21:01.216Z,75.31
2017-01-06T10:22:01.230Z,75.49
2017-01-06T10:23:01.232Z,75.4
2017-01-06T10:24:01.247Z,75.4
2017-01-06T10:25:01.251Z,74.74
2017-01-06T10:26:01.259Z,74.93
2017-01-06T10:27:01.271Z,74.93
2017-01-06T10:28:01.272Z,74.74
2017-01-06T10:29:01.284Z,75.02
2017-01-06T10:30:01.300Z,74.83
2017-01-06T10:31:01.295Z,75.02
2017-01-06T10:32:01.316Z,74.45
2017-01-06T10:33:01.313Z,74.26
2017-01-06T10:34:01.330Z,74.36
2017-01-06T10:35:01.326Z,74.07
2017-01-06T10:36:01.343Z,74.26
2017-01-06T10:37:01.348Z,74.17
2017-01-06T10:38:01.381Z,74.26
2017-01-06T10:39:01.364Z,74.26
2017-01-06T10:40:01.374Z,74.45
2017-01-06T10:41:01.383Z,74.17
2017-01-06T10:42:01.388Z,74.07
2017-01-06T10:43:01.400Z,73.5
2017-01-06T10:44:01.406Z,73.41
2017-01-06T10:45:01.407Z,73.03
2017-01-06T10:46:01.428Z,73.41
2017-01-06T10:47:01.428Z,73.6
2017-01-06T10:48:01.435Z,73.41
2017-01-06T10:49:01.442Z,73.41
2017-01-06T10:50:01.455Z,73.5
2017-01-06T10:51:01.462Z,73.41
2017-01-06T10:52:01.475Z,73.22
2017-01-06T10:53:01.476Z,73.69
2017-01-06T10:54:01.487Z,74.07
2017-01-06T10:55:01.494Z,74.07
2017-01-06T10:56:01.507Z,73.88
2017-01-06T10:57:01.510Z,74.26
2017-01-06T10:58:01.517Z,74.26
2017-01-06T10:59:01.528Z,74.07
2017-01-06T11:00:01.531Z,74.36
2017-01-06T11:01:01.547Z,74.45
2017-01-06T11:02:01.550Z,74.26
2017-01-06T11:03:01.558Z,73.88
2017-01-06T11:04:01.565Z,73.88
2017-01-06T11:05:01.574Z,73.88
2017-01-06T11:06:01.581Z,73.88
2017-01-06T11:07:01.592Z,74.36
2017-01-06T11:08:01.600Z,74.26
2017-01-06T11:09:01.609Z,74.17
2017-01-06T11:10:01.614Z,74.64
2017-01-06T11:11:01.627Z,74.36
2017-01-06T11:12:01.628Z,74.55
2017-01-06T11:13:01.634Z,74.36
2017-01-06T11:14:01.652Z,74.64
2017-01-06T11:15:01.658Z,74.17
2017-01-06T11:16:01.667Z,74.36
2017-01-06T11:17:01.671Z,74.93
2017-01-06T11:18:01.677Z,74.93
2017-01-06T11:19:01.688Z,75.12
2017-01-06T11:20:01.698Z,74.93
2017-01-06T11:21:01.703Z,75.02
2017-01-06T11:22:01.711Z,74.93
2017-01-06T11:23:01.724Z,74.64
2017-01-06T11:24:01.727Z,74.11
2017-01-06T11:25:01.759Z,73.98
2017-01-06T11:26:01.746Z,74.4
2017-01-06T11:27:01.755Z,74.4
2017-01-06T11:28:01.765Z,74.3
2017-01-06T11:29:01.771Z,74.58
2017-01-06T11:30:01.785Z,74.4
2017-01-06T11:31:01.786Z,74.21
2017-01-06T11:32:01.797Z,74.58
2017-01-06T11:33:01.804Z,74.49
2017-01-06T11:34:01.812Z,74.11
2017-01-06T11:35:01.821Z,74.4
2017-01-06T11:36:01.828Z,74.4
2017-01-06T11:37:01.841Z,74.49
2017-01-06T11:38:01.843Z,74.4
2017-01-06T11:39:01.856Z,74.49
2017-01-06T11:40:01.864Z,74.11
2017-01-06T11:41:01.876Z,74.02
2017-01-06T11:42:01.912Z,73.83
2017-01-06T11:43:01.890Z,73.73
2017-01-06T11:44:01.898Z,73.83
2017-01-06T11:45:01.907Z,74.3
2017-01-06T11:46:01.914Z,73.92
2017-01-06T11:47:01.921Z,73.92
2017-01-06T11:48:01.932Z,74.3
2017-01-06T11:49:01.941Z,74.4
2017-01-06T11:50:01.945Z,74.49
2017-01-06T11:51:01.954Z,74.11
2017-01-06T11:52:01.968Z,74.21
2017-01-06T11:53:01.970Z,74.11
2017-01-06T11:54:01.992Z,74.49
2017-01-06T11:55:01.989Z,74.49
2017-01-06T11:56:02.000Z,74.68
2017-01-06T11:57:02.002Z,74.4
2017-01-06T11:58:02.013Z,74.11
2017-01-06T11:59:02.022Z,73.73
2017-01-06T12:00:02.032Z,73.64
2017-01-06T12:01:02.044Z,73.26
2017-01-06T12:02:02.048Z,73.07
2017-01-06T12:03:02.059Z,73.45
2017-01-06T12:04:02.076Z,73.64
2017-01-06T12:05:02.075Z,73.26
2017-01-06T12:06:02.083Z,73.45
2017-01-06T12:07:02.098Z,73.16
2017-01-06T12:08:02.105Z,73.26
2017-01-06T12:09:02.108Z,73.83
2017-01-06T12:10:02.118Z,73.26
2017-01-06T12:11:02.152Z,73.26
2017-01-06T12:12:02.132Z,73.26
2017-01-06T12:13:02.143Z,73.26
2017-01-06T12:14:02.155Z,73.16
2017-01-06T12:15:02.157Z,73.26
2017-01-06T12:16:02.167Z,73.26
2017-01-06T12:17:02.176Z,73.26
2017-01-06T12:18:02.192Z,73.45
2017-01-06T12:19:02.200Z,73.73
2017-01-06T12:20:02.202Z,73.83
2017-01-06T12:21:02.213Z,74.21
2017-01-06T12:22:02.224Z,74.3
2017-01-06T12:23:02.229Z,74.21
2017-01-06T12:24:02.235Z,74.21
2017-01-06T12:25:02.274Z,73.73
2017-01-06T12:26:02.257Z,73.64
2017-01-06T12:27:02.265Z,73.92
2017-01-06T12:28:02.273Z,74.21
2017-01-06T12:29:02.284Z,75.05
2017-01-06T12:30:02.292Z,75.43
2017-01-06T12:31:02.302Z,75.72
2017-01-06T12:32:02.310Z,75.91
2017-01-06T12:33:02.316Z,75.85
2017-01-06T12:34:02.327Z,75.76
2017-01-06T12:35:02.337Z,75.76
2017-01-06T12:36:02.344Z,75.95
2017-01-06T12:37:02.353Z,75.57
2017-01-06T12:38:02.378Z,75.76
2017-01-06T12:39:02.368Z,75.85
2017-01-06T12:40:02.773Z,76.04
2017-01-06T12:41:02.388Z,75.95
2017-01-06T12:42:02.395Z,75.38
2017-01-06T12:43:02.405Z,75.66
2017-01-06T12:44:02.428Z,75.57
2017-01-06T12:45:02.423Z,75.28
2017-01-06T12:46:02.432Z,75.28
2017-01-06T12:47:02.442Z,75.57
2017-01-06T12:48:02.449Z,75
2017-01-06T12:49:02.455Z,75.09
2017-01-06T12:50:02.467Z,75.09
2017-01-06T12:51:02.475Z,75
2017-01-06T12:52:02.492Z,75
2017-01-06T12:53:02.494Z,75.09
2017-01-06T12:54:02.503Z,74.9
2017-01-06T12:55:02.516Z,75.09